sensor_id;sensor_type;location;lat;lon;timestamp;P1;durP1;ratioP1;P2;durP2;ratioP2
71665;SDS011;59503;53.486;10.196;2022-12-07T00:01:25;38.03;;;12.77;;
71665;SDS011;59503;53.486;10.196;2022-12-07T00:03:53;35.22;;;13.20;;
71665;SDS011;59503;53.486;10.196;2022-12-07T00:06:22;39.20;;;13.57;;
71665;SDS011;59503;53.486;10.196;2022-12-07T00:08:48;37.77;;;13.27;;
71665;SDS011;59503;53.486;10.196;2022-12-07T00:11:14;37.83;;;12.50;;
71665;SDS011;59503;53.486;10.196;2022-12-07T00:13:44;31.53;;;11.93;;
71665;SDS011;59503;53.486;10.196;2022-12-07T00:16:15;34.92;;;12.90;;
71665;SDS011;59503;53.486;10.196;2022-12-07T00:18:42;34.35;;;12.00;;
71665;SDS011;59503;53.486;10.196;2022-12-07T00:23:41;32.55;;;12.23;;
71665;SDS011;59503;53.486;10.196;2022-12-07T00:26:12;33.23;;;11.93;;
71665;SDS011;59503;53.486;10.196;2022-12-07T00:28:47;28.30;;;10.98;;
71665;SDS011;59503;53.486;10.196;2022-12-07T00:31:13;26.60;;;10.90;;
71665;SDS011;59503;53.486;10.196;2022-12-07T00:33:41;32.63;;;11.40;;
71665;SDS011;59503;53.486;10.196;2022-12-07T00:36:07;27.07;;;12.00;;
71665;SDS011;59503;53.486;10.196;2022-12-07T00:38:35;27.77;;;11.55;;
71665;SDS011;59503;53.486;10.196;2022-12-07T00:41:03;30.65;;;12.35;;
71665;SDS011;59503;53.486;10.196;2022-12-07T00:43:30;27.80;;;11.80;;
71665;SDS011;59503;53.486;10.196;2022-12-07T00:45:56;33.97;;;13.03;;
71665;SDS011;59503;53.486;10.196;2022-12-07T00:48:23;26.20;;;10.60;;
71665;SDS011;59503;53.486;10.196;2022-12-07T00:50:48;32.42;;;11.82;;
71665;SDS011;59503;53.486;10.196;2022-12-07T00:53:15;35.03;;;12.03;;
71665;SDS011;59503;53.486;10.196;2022-12-07T00:55:40;34.05;;;12.60;;
71665;SDS011;59503;53.486;10.196;2022-12-07T00:58:06;34.05;;;13.43;;
71665;SDS011;59503;53.486;10.196;2022-12-07T01:00:31;29.43;;;11.70;;
71665;SDS011;59503;53.486;10.196;2022-12-07T01:02:58;38.70;;;12.38;;
71665;SDS011;59503;53.486;10.196;2022-12-07T01:05:24;30.03;;;11.43;;
71665;SDS011;59503;53.486;10.196;2022-12-07T01:07:49;24.00;;;10.40;;
71665;SDS011;59503;53.486;10.196;2022-12-07T01:10:15;30.10;;;10.63;;
71665;SDS011;59503;53.486;10.196;2022-12-07T01:12:40;29.23;;;11.40;;
71665;SDS011;59503;53.486;10.196;2022-12-07T01:15:06;25.67;;;10.97;;
71665;SDS011;59503;53.486;10.196;2022-12-07T01:17:32;28.75;;;10.52;;
71665;SDS011;59503;53.486;10.196;2022-12-07T01:19:58;28.97;;;11.07;;
71665;SDS011;59503;53.486;10.196;2022-12-07T01:22:23;29.47;;;10.50;;
71665;SDS011;59503;53.486;10.196;2022-12-07T01:24:49;27.53;;;10.03;;
71665;SDS011;59503;53.486;10.196;2022-12-07T01:27:14;24.25;;;9.70;;
71665;SDS011;59503;53.486;10.196;2022-12-07T01:29:40;24.87;;;9.53;;
71665;SDS011;59503;53.486;10.196;2022-12-07T01:32:05;27.80;;;9.48;;
71665;SDS011;59503;53.486;10.196;2022-12-07T01:34:31;27.17;;;8.87;;
71665;SDS011;59503;53.486;10.196;2022-12-07T01:36:56;26.43;;;9.00;;
71665;SDS011;59503;53.486;10.196;2022-12-07T01:39:22;28.73;;;8.95;;
71665;SDS011;59503;53.486;10.196;2022-12-07T01:41:48;20.57;;;8.17;;
71665;SDS011;59503;53.486;10.196;2022-12-07T01:44:15;22.90;;;8.70;;
71665;SDS011;59503;53.486;10.196;2022-12-07T01:46:48;20.63;;;8.05;;
71665;SDS011;59503;53.486;10.196;2022-12-07T01:49:23;25.53;;;8.63;;
71665;SDS011;59503;53.486;10.196;2022-12-07T01:51:55;24.90;;;8.80;;
71665;SDS011;59503;53.486;10.196;2022-12-07T01:54:25;22.58;;;7.82;;
71665;SDS011;59503;53.486;10.196;2022-12-07T01:56:51;21.80;;;8.60;;
71665;SDS011;59503;53.486;10.196;2022-12-07T01:59:20;21.15;;;8.10;;
71665;SDS011;59503;53.486;10.196;2022-12-07T02:01:49;18.70;;;8.15;;
71665;SDS011;59503;53.486;10.196;2022-12-07T02:04:15;21.55;;;7.88;;
71665;SDS011;59503;53.486;10.196;2022-12-07T02:06:41;20.27;;;8.30;;
71665;SDS011;59503;53.486;10.196;2022-12-07T02:09:08;23.40;;;8.07;;
71665;SDS011;59503;53.486;10.196;2022-12-07T02:11:34;22.02;;;7.82;;
71665;SDS011;59503;53.486;10.196;2022-12-07T02:13:59;25.33;;;8.37;;
71665;SDS011;59503;53.486;10.196;2022-12-07T02:16:27;19.70;;;7.43;;
71665;SDS011;59503;53.486;10.196;2022-12-07T02:21:55;19.85;;;7.53;;
71665;SDS011;59503;53.486;10.196;2022-12-07T02:24:58;18.65;;;6.90;;
71665;SDS011;59503;53.486;10.196;2022-12-07T02:27:46;16.00;;;6.73;;
71665;SDS011;59503;53.486;10.196;2022-12-07T02:30:21;16.83;;;6.13;;
71665;SDS011;59503;53.486;10.196;2022-12-07T02:33:06;20.02;;;6.72;;
71665;SDS011;59503;53.486;10.196;2022-12-07T02:35:41;19.73;;;6.90;;
71665;SDS011;59503;53.486;10.196;2022-12-07T02:38:16;22.33;;;6.97;;
71665;SDS011;59503;53.486;10.196;2022-12-07T02:41:33;22.57;;;6.53;;
71665;SDS011;59503;53.486;10.196;2022-12-07T02:43:46;30.05;;;7.15;;
71665;SDS011;59503;53.486;10.196;2022-12-07T02:46:17;17.17;;;7.07;;
71665;SDS011;59503;53.486;10.196;2022-12-07T02:48:48;23.70;;;6.30;;
71665;SDS011;59503;53.486;10.196;2022-12-07T02:51:17;19.40;;;6.38;;
71665;SDS011;59503;53.486;10.196;2022-12-07T02:53:43;22.77;;;6.67;;
71665;SDS011;59503;53.486;10.196;2022-12-07T03:09:53;18.88;;;5.10;;
71665;SDS011;59503;53.486;10.196;2022-12-07T03:12:24;15.65;;;4.50;;
71665;SDS011;59503;53.486;10.196;2022-12-07T03:15:00;12.25;;;4.47;;
71665;SDS011;59503;53.486;10.196;2022-12-07T03:17:32;12.60;;;4.28;;
71665;SDS011;59503;53.486;10.196;2022-12-07T03:20:03;12.27;;;4.57;;
71665;SDS011;59503;53.486;10.196;2022-12-07T03:22:31;16.45;;;5.05;;
71665;SDS011;59503;53.486;10.196;2022-12-07T03:25:02;11.25;;;3.75;;
71665;SDS011;59503;53.486;10.196;2022-12-07T03:27:32;15.90;;;4.53;;
71665;SDS011;59503;53.486;10.196;2022-12-07T03:37:40;13.85;;;4.40;;
71665;SDS011;59503;53.486;10.196;2022-12-07T03:40:31;17.20;;;4.28;;
71665;SDS011;59503;53.486;10.196;2022-12-07T03:43:09;13.02;;;3.75;;
71665;SDS011;59503;53.486;10.196;2022-12-07T03:45:39;15.23;;;3.33;;
71665;SDS011;59503;53.486;10.196;2022-12-07T03:53:49;13.15;;;3.67;;
71665;SDS011;59503;53.486;10.196;2022-12-07T03:56:20;9.02;;;2.85;;
71665;SDS011;59503;53.486;10.196;2022-12-07T03:58:46;11.17;;;3.27;;
71665;SDS011;59503;53.486;10.196;2022-12-07T04:01:13;8.05;;;3.15;;
71665;SDS011;59503;53.486;10.196;2022-12-07T04:03:38;10.75;;;3.35;;
71665;SDS011;59503;53.486;10.196;2022-12-07T04:06:04;9.53;;;2.90;;
71665;SDS011;59503;53.486;10.196;2022-12-07T04:08:29;7.80;;;2.20;;
71665;SDS011;59503;53.486;10.196;2022-12-07T04:10:55;7.25;;;2.72;;
71665;SDS011;59503;53.486;10.196;2022-12-07T04:13:20;6.77;;;2.87;;
71665;SDS011;59503;53.486;10.196;2022-12-07T04:15:46;10.20;;;2.80;;
71665;SDS011;59503;53.486;10.196;2022-12-07T04:18:11;8.90;;;2.73;;
71665;SDS011;59503;53.486;10.196;2022-12-07T04:20:37;8.13;;;2.47;;
71665;SDS011;59503;53.486;10.196;2022-12-07T04:23:02;9.53;;;2.50;;
71665;SDS011;59503;53.486;10.196;2022-12-07T04:25:28;7.87;;;1.93;;
71665;SDS011;59503;53.486;10.196;2022-12-07T04:27:53;4.90;;;2.37;;
71665;SDS011;59503;53.486;10.196;2022-12-07T04:30:19;11.75;;;2.63;;
71665;SDS011;59503;53.486;10.196;2022-12-07T04:32:44;7.90;;;2.60;;
71665;SDS011;59503;53.486;10.196;2022-12-07T04:35:09;14.47;;;2.70;;
71665;SDS011;59503;53.486;10.196;2022-12-07T04:37:35;3.65;;;1.98;;
71665;SDS011;59503;53.486;10.196;2022-12-07T04:40:01;6.53;;;2.53;;
71665;SDS011;59503;53.486;10.196;2022-12-07T04:42:26;7.43;;;2.25;;
71665;SDS011;59503;53.486;10.196;2022-12-07T04:44:52;8.83;;;2.40;;
71665;SDS011;59503;53.486;10.196;2022-12-07T04:47:17;7.03;;;2.10;;
71665;SDS011;59503;53.486;10.196;2022-12-07T04:49:43;17.77;;;3.13;;
71665;SDS011;59503;53.486;10.196;2022-12-07T04:52:08;5.00;;;1.83;;
71665;SDS011;59503;53.486;10.196;2022-12-07T04:54:33;7.40;;;2.17;;
71665;SDS011;59503;53.486;10.196;2022-12-07T04:56:59;5.87;;;2.03;;
71665;SDS011;59503;53.486;10.196;2022-12-07T04:59:24;9.23;;;2.13;;
71665;SDS011;59503;53.486;10.196;2022-12-07T05:01:50;5.60;;;2.50;;
71665;SDS011;59503;53.486;10.196;2022-12-07T05:04:15;11.13;;;2.93;;
71665;SDS011;59503;53.486;10.196;2022-12-07T05:06:42;5.53;;;2.22;;
71665;SDS011;59503;53.486;10.196;2022-12-07T05:09:08;7.17;;;2.30;;
71665;SDS011;59503;53.486;10.196;2022-12-07T05:11:33;7.87;;;2.10;;
71665;SDS011;59503;53.486;10.196;2022-12-07T05:14:09;7.30;;;2.30;;
71665;SDS011;59503;53.486;10.196;2022-12-07T05:16:37;4.57;;;2.05;;
71665;SDS011;59503;53.486;10.196;2022-12-07T05:19:04;8.52;;;2.58;;
71665;SDS011;59503;53.486;10.196;2022-12-07T05:21:30;8.13;;;2.30;;
71665;SDS011;59503;53.486;10.196;2022-12-07T05:23:56;8.03;;;2.80;;
71665;SDS011;59503;53.486;10.196;2022-12-07T05:26:21;6.47;;;2.33;;
71665;SDS011;59503;53.486;10.196;2022-12-07T05:28:50;7.10;;;2.35;;
71665;SDS011;59503;53.486;10.196;2022-12-07T05:31:19;8.50;;;2.50;;
71665;SDS011;59503;53.486;10.196;2022-12-07T05:33:44;7.97;;;2.58;;
71665;SDS011;59503;53.486;10.196;2022-12-07T05:36:10;7.93;;;2.37;;
71665;SDS011;59503;53.486;10.196;2022-12-07T05:38:35;6.67;;;2.57;;
71665;SDS011;59503;53.486;10.196;2022-12-07T05:41:04;10.27;;;2.10;;
71665;SDS011;59503;53.486;10.196;2022-12-07T05:43:30;6.43;;;1.87;;
71665;SDS011;59503;53.486;10.196;2022-12-07T05:45:56;5.20;;;2.08;;
71665;SDS011;59503;53.486;10.196;2022-12-07T05:48:23;6.28;;;2.70;;
71665;SDS011;59503;53.486;10.196;2022-12-07T05:50:48;6.93;;;1.90;;
71665;SDS011;59503;53.486;10.196;2022-12-07T05:53:14;6.43;;;2.20;;
71665;SDS011;59503;53.486;10.196;2022-12-07T05:55:40;7.10;;;2.67;;
71665;SDS011;59503;53.486;10.196;2022-12-07T05:58:05;14.20;;;2.77;;
71665;SDS011;59503;53.486;10.196;2022-12-07T06:00:50;7.82;;;2.70;;
71665;SDS011;59503;53.486;10.196;2022-12-07T06:03:15;8.57;;;3.57;;
71665;SDS011;59503;53.486;10.196;2022-12-07T06:05:40;9.33;;;2.80;;
71665;SDS011;59503;53.486;10.196;2022-12-07T06:08:06;7.47;;;2.78;;
71665;SDS011;59503;53.486;10.196;2022-12-07T06:10:32;10.23;;;3.40;;
71665;SDS011;59503;53.486;10.196;2022-12-07T06:12:57;8.40;;;3.00;;
71665;SDS011;59503;53.486;10.196;2022-12-07T06:15:22;10.70;;;2.80;;
71665;SDS011;59503;53.486;10.196;2022-12-07T06:17:48;8.10;;;2.87;;
71665;SDS011;59503;53.486;10.196;2022-12-07T06:20:13;11.63;;;3.55;;
71665;SDS011;59503;53.486;10.196;2022-12-07T06:22:39;6.47;;;2.80;;
71665;SDS011;59503;53.486;10.196;2022-12-07T06:25:05;6.18;;;2.55;;
71665;SDS011;59503;53.486;10.196;2022-12-07T06:27:32;6.78;;;2.60;;
71665;SDS011;59503;53.486;10.196;2022-12-07T06:29:58;6.97;;;2.70;;
71665;SDS011;59503;53.486;10.196;2022-12-07T06:32:24;11.10;;;3.03;;
71665;SDS011;59503;53.486;10.196;2022-12-07T06:34:49;5.80;;;2.20;;
71665;SDS011;59503;53.486;10.196;2022-12-07T06:37:15;9.02;;;2.60;;
71665;SDS011;59503;53.486;10.196;2022-12-07T06:39:40;6.80;;;2.23;;
71665;SDS011;59503;53.486;10.196;2022-12-07T06:42:06;9.40;;;2.63;;
71665;SDS011;59503;53.486;10.196;2022-12-07T06:44:31;9.40;;;2.57;;
71665;SDS011;59503;53.486;10.196;2022-12-07T06:46:57;11.52;;;3.17;;
71665;SDS011;59503;53.486;10.196;2022-12-07T06:49:23;11.83;;;2.53;;
71665;SDS011;59503;53.486;10.196;2022-12-07T06:51:48;8.73;;;2.33;;
71665;SDS011;59503;53.486;10.196;2022-12-07T06:54:14;7.53;;;2.47;;
71665;SDS011;59503;53.486;10.196;2022-12-07T06:56:40;7.25;;;2.35;;
71665;SDS011;59503;53.486;10.196;2022-12-07T06:59:06;7.30;;;2.20;;
71665;SDS011;59503;53.486;10.196;2022-12-07T07:01:32;6.80;;;2.53;;
71665;SDS011;59503;53.486;10.196;2022-12-07T07:03:59;7.32;;;2.42;;
71665;SDS011;59503;53.486;10.196;2022-12-07T07:06:24;9.00;;;2.30;;
71665;SDS011;59503;53.486;10.196;2022-12-07T07:08:49;4.33;;;1.63;;
71665;SDS011;59503;53.486;10.196;2022-12-07T07:11:15;8.93;;;2.45;;
71665;SDS011;59503;53.486;10.196;2022-12-07T07:13:41;5.80;;;1.80;;
71665;SDS011;59503;53.486;10.196;2022-12-07T07:16:06;4.37;;;1.70;;
71665;SDS011;59503;53.486;10.196;2022-12-07T07:18:32;10.75;;;2.35;;
71665;SDS011;59503;53.486;10.196;2022-12-07T07:20:58;7.40;;;2.63;;
71665;SDS011;59503;53.486;10.196;2022-12-07T07:23:23;6.70;;;2.22;;
71665;SDS011;59503;53.486;10.196;2022-12-07T07:25:48;10.63;;;2.50;;
71665;SDS011;59503;53.486;10.196;2022-12-07T07:28:14;6.97;;;1.80;;
71665;SDS011;59503;53.486;10.196;2022-12-07T07:30:41;5.65;;;2.33;;
71665;SDS011;59503;53.486;10.196;2022-12-07T07:33:06;9.57;;;2.28;;
71665;SDS011;59503;53.486;10.196;2022-12-07T07:35:32;8.83;;;1.87;;
71665;SDS011;59503;53.486;10.196;2022-12-07T07:37:59;9.80;;;2.17;;
71665;SDS011;59503;53.486;10.196;2022-12-07T07:40:25;8.32;;;2.33;;
71665;SDS011;59503;53.486;10.196;2022-12-07T07:42:51;5.20;;;1.70;;
71665;SDS011;59503;53.486;10.196;2022-12-07T07:45:18;7.97;;;1.98;;
71665;SDS011;59503;53.486;10.196;2022-12-07T07:47:44;9.50;;;2.08;;
71665;SDS011;59503;53.486;10.196;2022-12-07T07:50:09;7.03;;;2.57;;
71665;SDS011;59503;53.486;10.196;2022-12-07T07:52:35;9.13;;;2.08;;
71665;SDS011;59503;53.486;10.196;2022-12-07T07:55:01;10.23;;;2.10;;
71665;SDS011;59503;53.486;10.196;2022-12-07T07:57:26;11.60;;;2.27;;
71665;SDS011;59503;53.486;10.196;2022-12-07T07:59:52;4.88;;;1.80;;
71665;SDS011;59503;53.486;10.196;2022-12-07T08:02:18;4.73;;;2.00;;
71665;SDS011;59503;53.486;10.196;2022-12-07T08:04:45;9.87;;;2.10;;
71665;SDS011;59503;53.486;10.196;2022-12-07T08:07:13;10.35;;;1.70;;
71665;SDS011;59503;53.486;10.196;2022-12-07T08:09:39;8.68;;;1.73;;
71665;SDS011;59503;53.486;10.196;2022-12-07T08:12:05;6.23;;;1.30;;
71665;SDS011;59503;53.486;10.196;2022-12-07T08:14:30;2.88;;;0.88;;
71665;SDS011;59503;53.486;10.196;2022-12-07T08:16:56;8.80;;;1.27;;
71665;SDS011;59503;53.486;10.196;2022-12-07T08:19:22;6.53;;;1.23;;
71665;SDS011;59503;53.486;10.196;2022-12-07T08:21:47;3.77;;;1.10;;
71665;SDS011;59503;53.486;10.196;2022-12-07T08:24:13;4.93;;;1.10;;
71665;SDS011;59503;53.486;10.196;2022-12-07T08:26:38;2.40;;;0.90;;
71665;SDS011;59503;53.486;10.196;2022-12-07T08:29:04;4.97;;;0.90;;
71665;SDS011;59503;53.486;10.196;2022-12-07T08:31:29;3.50;;;1.00;;
71665;SDS011;59503;53.486;10.196;2022-12-07T08:33:55;5.40;;;0.70;;
71665;SDS011;59503;53.486;10.196;2022-12-07T08:36:21;2.38;;;0.60;;
71665;SDS011;59503;53.486;10.196;2022-12-07T08:38:49;2.15;;;0.80;;
71665;SDS011;59503;53.486;10.196;2022-12-07T08:41:15;3.50;;;0.90;;
71665;SDS011;59503;53.486;10.196;2022-12-07T08:43:41;3.27;;;0.67;;
71665;SDS011;59503;53.486;10.196;2022-12-07T08:48:46;4.18;;;0.80;;
71665;SDS011;59503;53.486;10.196;2022-12-07T08:51:17;4.95;;;1.00;;
71665;SDS011;59503;53.486;10.196;2022-12-07T08:53:42;6.20;;;0.80;;
71665;SDS011;59503;53.486;10.196;2022-12-07T08:56:08;4.30;;;1.10;;
71665;SDS011;59503;53.486;10.196;2022-12-07T08:58:34;6.47;;;1.02;;
71665;SDS011;59503;53.486;10.196;2022-12-07T09:01:02;3.47;;;1.10;;
71665;SDS011;59503;53.486;10.196;2022-12-07T09:03:27;4.57;;;1.30;;
71665;SDS011;59503;53.486;10.196;2022-12-07T09:05:53;8.50;;;1.00;;
71665;SDS011;59503;53.486;10.196;2022-12-07T09:08:19;3.13;;;1.00;;
71665;SDS011;59503;53.486;10.196;2022-12-07T09:10:46;4.82;;;1.00;;
71665;SDS011;59503;53.486;10.196;2022-12-07T09:13:12;5.13;;;0.98;;
71665;SDS011;59503;53.486;10.196;2022-12-07T09:15:38;2.70;;;1.00;;
71665;SDS011;59503;53.486;10.196;2022-12-07T09:18:03;3.30;;;0.80;;
71665;SDS011;59503;53.486;10.196;2022-12-07T09:20:29;5.93;;;1.17;;
71665;SDS011;59503;53.486;10.196;2022-12-07T09:22:54;7.93;;;1.23;;
71665;SDS011;59503;53.486;10.196;2022-12-07T09:25:20;6.60;;;1.60;;
71665;SDS011;59503;53.486;10.196;2022-12-07T09:27:45;2.90;;;0.65;;
71665;SDS011;59503;53.486;10.196;2022-12-07T09:30:11;5.90;;;1.23;;
71665;SDS011;59503;53.486;10.196;2022-12-07T09:32:37;6.55;;;1.23;;
71665;SDS011;59503;53.486;10.196;2022-12-07T09:35:02;8.13;;;1.37;;
71665;SDS011;59503;53.486;10.196;2022-12-07T09:37:28;7.80;;;1.27;;
71665;SDS011;59503;53.486;10.196;2022-12-07T09:39:53;7.30;;;1.00;;
71665;SDS011;59503;53.486;10.196;2022-12-07T09:42:25;7.90;;;1.00;;
71665;SDS011;59503;53.486;10.196;2022-12-07T09:44:53;6.20;;;0.98;;
71665;SDS011;59503;53.486;10.196;2022-12-07T09:47:19;4.57;;;0.80;;
71665;SDS011;59503;53.486;10.196;2022-12-07T09:49:44;5.80;;;0.70;;
71665;SDS011;59503;53.486;10.196;2022-12-07T09:54:52;3.60;;;0.85;;
71665;SDS011;59503;53.486;10.196;2022-12-07T09:57:18;4.07;;;0.60;;
71665;SDS011;59503;53.486;10.196;2022-12-07T09:59:54;2.15;;;0.70;;
71665;SDS011;59503;53.486;10.196;2022-12-07T10:02:24;6.10;;;0.70;;
71665;SDS011;59503;53.486;10.196;2022-12-07T10:05:35;8.10;;;0.80;;
71665;SDS011;59503;53.486;10.196;2022-12-07T10:08:05;8.90;;;0.93;;
71665;SDS011;59503;53.486;10.196;2022-12-07T10:10:33;4.97;;;0.80;;
71665;SDS011;59503;53.486;10.196;2022-12-07T10:23:29;8.07;;;0.90;;
71665;SDS011;59503;53.486;10.196;2022-12-07T10:25:55;7.25;;;1.58;;
71665;SDS011;59503;53.486;10.196;2022-12-07T10:28:21;5.17;;;0.60;;
71665;SDS011;59503;53.486;10.196;2022-12-07T10:30:51;2.13;;;0.52;;
71665;SDS011;59503;53.486;10.196;2022-12-07T10:35:54;1.80;;;0.50;;
71665;SDS011;59503;53.486;10.196;2022-12-07T10:38:19;4.77;;;0.50;;
71665;SDS011;59503;53.486;10.196;2022-12-07T10:40:45;3.50;;;0.60;;
71665;SDS011;59503;53.486;10.196;2022-12-07T10:43:17;4.53;;;0.50;;
71665;SDS011;59503;53.486;10.196;2022-12-07T10:51:05;6.50;;;0.52;;
71665;SDS011;59503;53.486;10.196;2022-12-07T10:59:24;5.22;;;0.85;;
71665;SDS011;59503;53.486;10.196;2022-12-07T11:01:54;2.67;;;0.40;;
71665;SDS011;59503;53.486;10.196;2022-12-07T11:04:43;3.85;;;0.60;;
71665;SDS011;59503;53.486;10.196;2022-12-07T11:07:15;5.47;;;0.40;;
71665;SDS011;59503;53.486;10.196;2022-12-07T11:10:05;3.50;;;0.40;;
71665;SDS011;59503;53.486;10.196;2022-12-07T11:26:22;1.58;;;0.40;;
71665;SDS011;59503;53.486;10.196;2022-12-07T11:29:11;4.40;;;0.33;;
71665;SDS011;59503;53.486;10.196;2022-12-07T11:32:12;4.22;;;0.60;;
71665;SDS011;59503;53.486;10.196;2022-12-07T11:35:22;3.47;;;1.13;;
71665;SDS011;59503;53.486;10.196;2022-12-07T11:40:43;6.65;;;0.47;;
71665;SDS011;59503;53.486;10.196;2022-12-07T11:46:04;8.60;;;0.60;;
71665;SDS011;59503;53.486;10.196;2022-12-07T11:48:41;5.28;;;0.40;;
71665;SDS011;59503;53.486;10.196;2022-12-07T11:51:14;4.35;;;1.20;;
71665;SDS011;59503;53.486;10.196;2022-12-07T11:53:45;3.22;;;0.50;;
71665;SDS011;59503;53.486;10.196;2022-12-07T11:56:15;5.23;;;0.47;;
71665;SDS011;59503;53.486;10.196;2022-12-07T11:58:57;7.35;;;0.95;;
71665;SDS011;59503;53.486;10.196;2022-12-07T12:06:35;6.47;;;0.55;;
71665;SDS011;59503;53.486;10.196;2022-12-07T12:09:45;5.60;;;0.60;;
71665;SDS011;59503;53.486;10.196;2022-12-07T12:12:01;8.25;;;0.88;;
71665;SDS011;59503;53.486;10.196;2022-12-07T12:17:50;9.63;;;0.90;;
71665;SDS011;59503;53.486;10.196;2022-12-07T12:23:16;6.00;;;0.50;;
71665;SDS011;59503;53.486;10.196;2022-12-07T12:25:55;2.63;;;0.70;;
71665;SDS011;59503;53.486;10.196;2022-12-07T12:42:00;6.17;;;0.80;;
71665;SDS011;59503;53.486;10.196;2022-12-07T12:46:52;4.18;;;0.68;;
71665;SDS011;59503;53.486;10.196;2022-12-07T12:54:15;8.57;;;0.70;;
71665;SDS011;59503;53.486;10.196;2022-12-07T13:02:27;3.97;;;0.70;;
71665;SDS011;59503;53.486;10.196;2022-12-07T13:15:35;7.28;;;1.10;;
71665;SDS011;59503;53.486;10.196;2022-12-07T13:18:49;5.55;;;0.73;;
71665;SDS011;59503;53.486;10.196;2022-12-07T13:23:36;7.57;;;0.75;;
71665;SDS011;59503;53.486;10.196;2022-12-07T13:28:48;5.38;;;0.40;;
71665;SDS011;59503;53.486;10.196;2022-12-07T13:33:57;9.82;;;0.60;;
71665;SDS011;59503;53.486;10.196;2022-12-07T13:36:24;9.65;;;0.70;;
71665;SDS011;59503;53.486;10.196;2022-12-07T13:39:00;7.73;;;0.70;;
71665;SDS011;59503;53.486;10.196;2022-12-07T13:41:41;7.82;;;0.90;;
71665;SDS011;59503;53.486;10.196;2022-12-07T13:44:11;7.25;;;0.85;;
71665;SDS011;59503;53.486;10.196;2022-12-07T13:49:25;6.82;;;0.52;;
71665;SDS011;59503;53.486;10.196;2022-12-07T13:52:07;10.07;;;1.40;;
71665;SDS011;59503;53.486;10.196;2022-12-07T13:57:21;4.43;;;0.60;;
71665;SDS011;59503;53.486;10.196;2022-12-07T13:59:47;6.35;;;0.40;;
71665;SDS011;59503;53.486;10.196;2022-12-07T14:02:24;11.90;;;0.83;;
71665;SDS011;59503;53.486;10.196;2022-12-07T14:05:05;8.45;;;0.85;;
71665;SDS011;59503;53.486;10.196;2022-12-07T14:10:34;4.05;;;0.47;;
71665;SDS011;59503;53.486;10.196;2022-12-07T14:13:02;5.17;;;0.83;;
71665;SDS011;59503;53.486;10.196;2022-12-07T14:15:49;5.25;;;0.90;;
71665;SDS011;59503;53.486;10.196;2022-12-07T14:18:29;4.80;;;0.70;;
71665;SDS011;59503;53.486;10.196;2022-12-07T14:21:26;2.50;;;0.38;;
71665;SDS011;59503;53.486;10.196;2022-12-07T14:26:40;7.47;;;0.40;;
71665;SDS011;59503;53.486;10.196;2022-12-07T14:29:18;5.13;;;0.50;;
71665;SDS011;59503;53.486;10.196;2022-12-07T14:31:56;2.05;;;0.30;;
71665;SDS011;59503;53.486;10.196;2022-12-07T14:34:52;1.95;;;0.40;;
71665;SDS011;59503;53.486;10.196;2022-12-07T14:37:28;3.40;;;0.40;;
71665;SDS011;59503;53.486;10.196;2022-12-07T14:39:55;2.97;;;0.38;;
71665;SDS011;59503;53.486;10.196;2022-12-07T14:42:21;9.88;;;0.43;;
71665;SDS011;59503;53.486;10.196;2022-12-07T14:44:51;3.40;;;0.22;;
71665;SDS011;59503;53.486;10.196;2022-12-07T14:47:16;4.63;;;0.30;;
71665;SDS011;59503;53.486;10.196;2022-12-07T14:49:41;10.27;;;0.73;;
71665;SDS011;59503;53.486;10.196;2022-12-07T14:52:13;5.57;;;0.55;;
71665;SDS011;59503;53.486;10.196;2022-12-07T14:54:42;4.20;;;0.30;;
71665;SDS011;59503;53.486;10.196;2022-12-07T14:57:08;1.75;;;0.30;;
71665;SDS011;59503;53.486;10.196;2022-12-07T14:59:35;7.20;;;0.60;;
71665;SDS011;59503;53.486;10.196;2022-12-07T15:02:00;9.23;;;0.60;;
71665;SDS011;59503;53.486;10.196;2022-12-07T15:04:26;5.37;;;0.70;;
71665;SDS011;59503;53.486;10.196;2022-12-07T15:06:58;6.00;;;0.60;;
71665;SDS011;59503;53.486;10.196;2022-12-07T15:09:25;4.47;;;0.40;;
71665;SDS011;59503;53.486;10.196;2022-12-07T15:11:50;8.33;;;1.50;;
71665;SDS011;59503;53.486;10.196;2022-12-07T15:14:15;6.53;;;0.40;;
71665;SDS011;59503;53.486;10.196;2022-12-07T15:16:42;4.67;;;0.50;;
71665;SDS011;59503;53.486;10.196;2022-12-07T15:19:12;4.35;;;0.60;;
71665;SDS011;59503;53.486;10.196;2022-12-07T15:21:42;3.28;;;0.35;;
71665;SDS011;59503;53.486;10.196;2022-12-07T15:24:09;4.35;;;0.70;;
71665;SDS011;59503;53.486;10.196;2022-12-07T15:26:36;2.90;;;0.50;;
71665;SDS011;59503;53.486;10.196;2022-12-07T15:29:02;7.07;;;0.95;;
71665;SDS011;59503;53.486;10.196;2022-12-07T15:31:28;5.78;;;0.60;;
71665;SDS011;59503;53.486;10.196;2022-12-07T15:33:53;2.27;;;0.50;;
71665;SDS011;59503;53.486;10.196;2022-12-07T15:36:20;4.90;;;0.60;;
71665;SDS011;59503;53.486;10.196;2022-12-07T15:38:48;2.20;;;0.63;;
71665;SDS011;59503;53.486;10.196;2022-12-07T15:41:14;4.28;;;0.60;;
71665;SDS011;59503;53.486;10.196;2022-12-07T15:43:39;4.03;;;0.70;;
71665;SDS011;59503;53.486;10.196;2022-12-07T15:46:28;4.28;;;0.57;;
71665;SDS011;59503;53.486;10.196;2022-12-07T15:48:55;3.20;;;0.50;;
71665;SDS011;59503;53.486;10.196;2022-12-07T15:51:21;1.27;;;0.60;;
71665;SDS011;59503;53.486;10.196;2022-12-07T15:53:46;5.03;;;0.70;;
71665;SDS011;59503;53.486;10.196;2022-12-07T15:56:11;9.20;;;1.43;;
71665;SDS011;59503;53.486;10.196;2022-12-07T15:58:37;5.60;;;0.63;;
71665;SDS011;59503;53.486;10.196;2022-12-07T16:01:12;2.07;;;0.70;;
71665;SDS011;59503;53.486;10.196;2022-12-07T16:03:39;5.88;;;0.63;;
71665;SDS011;59503;53.486;10.196;2022-12-07T16:06:04;5.20;;;0.60;;
71665;SDS011;59503;53.486;10.196;2022-12-07T16:08:30;10.57;;;0.97;;
71665;SDS011;59503;53.486;10.196;2022-12-07T16:10:56;6.38;;;0.50;;
71665;SDS011;59503;53.486;10.196;2022-12-07T16:13:21;4.70;;;0.77;;
71665;SDS011;59503;53.486;10.196;2022-12-07T16:15:47;3.17;;;0.67;;
71665;SDS011;59503;53.486;10.196;2022-12-07T16:18:13;5.15;;;0.43;;
71665;SDS011;59503;53.486;10.196;2022-12-07T16:20:38;2.27;;;0.40;;
71665;SDS011;59503;53.486;10.196;2022-12-07T16:23:04;3.33;;;0.43;;
71665;SDS011;59503;53.486;10.196;2022-12-07T16:25:30;8.07;;;0.50;;
71665;SDS011;59503;53.486;10.196;2022-12-07T16:27:55;7.25;;;0.70;;
71665;SDS011;59503;53.486;10.196;2022-12-07T16:30:20;1.40;;;0.40;;
71665;SDS011;59503;53.486;10.196;2022-12-07T16:32:46;5.37;;;0.63;;
71665;SDS011;59503;53.486;10.196;2022-12-07T16:35:11;3.10;;;0.30;;
71665;SDS011;59503;53.486;10.196;2022-12-07T16:37:37;8.63;;;0.52;;
71665;SDS011;59503;53.486;10.196;2022-12-07T16:40:03;6.32;;;0.50;;
71665;SDS011;59503;53.486;10.196;2022-12-07T16:42:32;3.83;;;0.50;;
71665;SDS011;59503;53.486;10.196;2022-12-07T16:44:59;4.00;;;0.50;;
71665;SDS011;59503;53.486;10.196;2022-12-07T16:47:24;2.50;;;0.40;;
71665;SDS011;59503;53.486;10.196;2022-12-07T16:49:50;1.90;;;0.50;;
71665;SDS011;59503;53.486;10.196;2022-12-07T16:52:17;2.03;;;0.28;;
71665;SDS011;59503;53.486;10.196;2022-12-07T16:54:43;3.80;;;0.50;;
71665;SDS011;59503;53.486;10.196;2022-12-07T16:57:08;2.03;;;0.50;;
71665;SDS011;59503;53.486;10.196;2022-12-07T16:59:34;3.90;;;0.63;;
71665;SDS011;59503;53.486;10.196;2022-12-07T17:01:59;1.27;;;0.40;;
71665;SDS011;59503;53.486;10.196;2022-12-07T17:04:24;8.37;;;0.83;;
71665;SDS011;59503;53.486;10.196;2022-12-07T17:06:50;4.70;;;1.40;;